sensor_id;sensor_type;location;lat;lon;timestamp;pressure;altitude;pressure_sealevel;temperature;humidity
29383;BME280;16365;51.598;7.668;2022-12-07T00:01:25;100957.84;;;11.44;53.89
29383;BME280;16365;51.598;7.668;2022-12-07T00:03:54;100957.84;;;11.44;53.43
29383;BME280;16365;51.598;7.668;2022-12-07T00:06:26;100957.50;;;11.46;53.60
29383;BME280;16365;51.598;7.668;2022-12-07T00:08:53;100949.16;;;11.46;53.55
29383;BME280;16365;51.598;7.668;2022-12-07T00:11:23;100952.78;;;11.46;53.86
29383;BME280;16365;51.598;7.668;2022-12-07T00:13:57;100954.72;;;11.46;54.12
29383;BME280;16365;51.598;7.668;2022-12-07T00:16:27;100952.44;;;11.48;53.92
29383;BME280;16365;51.598;7.668;2022-12-07T00:18:54;100956.84;;;11.49;53.78
29383;BME280;16365;51.598;7.668;2022-12-07T00:21:29;100955.69;;;11.50;53.78
29383;BME280;16365;51.598;7.668;2022-12-07T00:23:56;100950.66;;;11.52;54.05
29383;BME280;16365;51.598;7.668;2022-12-07T00:26:26;100946.72;;;11.53;53.58
29383;BME280;16365;51.598;7.668;2022-12-07T00:28:55;100947.53;;;11.53;53.38
29383;BME280;16365;51.598;7.668;2022-12-07T00:31:25;100947.19;;;11.55;53.49
29383;BME280;16365;51.598;7.668;2022-12-07T00:33:52;100937.75;;;11.56;53.44
29383;BME280;16365;51.598;7.668;2022-12-07T00:36:20;100936.91;;;11.55;52.97
29383;BME280;16365;51.598;7.668;2022-12-07T00:38:53;100945.75;;;11.57;53.54
29383;BME280;16365;51.598;7.668;2022-12-07T00:41:22;100942.16;;;11.57;53.65
29383;BME280;16365;51.598;7.668;2022-12-07T00:43:49;100941.34;;;11.56;53.53
29383;BME280;16365;51.598;7.668;2022-12-07T00:46:18;100934.63;;;11.57;53.23
29383;BME280;16365;51.598;7.668;2022-12-07T00:48:45;100933.81;;;11.57;53.30
29383;BME280;16365;51.598;7.668;2022-12-07T00:51:13;100932.19;;;11.56;53.37
29383;BME280;16365;51.598;7.668;2022-12-07T00:53:40;100935.44;;;11.58;53.74
29383;BME280;16365;51.598;7.668;2022-12-07T00:56:22;100929.88;;;11.58;53.73
29383;BME280;16365;51.598;7.668;2022-12-07T00:58:54;100922.38;;;11.58;53.44
29383;BME280;16365;51.598;7.668;2022-12-07T01:01:22;100929.56;;;11.59;53.38
29383;BME280;16365;51.598;7.668;2022-12-07T01:03:49;100928.25;;;11.57;53.24
29383;BME280;16365;51.598;7.668;2022-12-07T01:06:19;100923.88;;;11.56;53.45
29383;BME280;16365;51.598;7.668;2022-12-07T01:08:47;100920.25;;;11.55;53.23
29383;BME280;16365;51.598;7.668;2022-12-07T01:11:18;100916.66;;;11.55;53.47
29383;BME280;16365;51.598;7.668;2022-12-07T01:13:45;100911.09;;;11.55;53.39
29383;BME280;16365;51.598;7.668;2022-12-07T01:16:14;100916.19;;;11.53;52.95
29383;BME280;16365;51.598;7.668;2022-12-07T01:18:45;100911.28;;;11.50;53.07
29383;BME280;16365;51.598;7.668;2022-12-07T01:21:21;100919.59;;;11.50;53.27
29383;BME280;16365;51.598;7.668;2022-12-07T01:23:49;100912.09;;;11.50;53.39
29383;BME280;16365;51.598;7.668;2022-12-07T01:26:20;100917.97;;;11.49;52.87
29383;BME280;16365;51.598;7.668;2022-12-07T01:28:48;100916.81;;;11.50;53.11
29383;BME280;16365;51.598;7.668;2022-12-07T01:31:17;100916.81;;;11.50;53.36
29383;BME280;16365;51.598;7.668;2022-12-07T01:33:52;100922.38;;;11.50;53.79
29383;BME280;16365;51.598;7.668;2022-12-07T01:36:22;100923.19;;;11.50;53.29
29383;BME280;16365;51.598;7.668;2022-12-07T01:38:51;100924.34;;;11.49;53.51
29383;BME280;16365;51.598;7.668;2022-12-07T01:41:20;100932.66;;;11.49;53.38
29383;BME280;16365;51.598;7.668;2022-12-07T01:46:55;100930.06;;;11.53;53.66
29383;BME280;16365;51.598;7.668;2022-12-07T01:49:30;100940.34;;;11.52;53.56
29383;BME280;16365;51.598;7.668;2022-12-07T01:52:25;100936.25;;;11.50;53.20
29383;BME280;16365;51.598;7.668;2022-12-07T01:54:57;100924.03;;;11.51;53.50
29383;BME280;16365;51.598;7.668;2022-12-07T01:57:25;100927.28;;;11.53;52.88
29383;BME280;16365;51.598;7.668;2022-12-07T01:59:53;100934.81;;;11.52;53.59
29383;BME280;16365;51.598;7.668;2022-12-07T02:02:25;100930.41;;;11.51;53.77
29383;BME280;16365;51.598;7.668;2022-12-07T02:04:54;100930.88;;;11.53;53.30
29383;BME280;16365;51.598;7.668;2022-12-07T02:07:22;100923.34;;;11.54;53.46
29383;BME280;16365;51.598;7.668;2022-12-07T02:09:49;100915.84;;;11.54;53.09
29383;BME280;16365;51.598;7.668;2022-12-07T02:12:15;100915.03;;;11.54;53.35
29383;BME280;16365;51.598;7.668;2022-12-07T02:14:42;100917.00;;;11.53;52.83
29383;BME280;16365;51.598;7.668;2022-12-07T02:17:20;100910.63;;;11.53;53.04
29383;BME280;16365;51.598;7.668;2022-12-07T02:20:23;100909.66;;;11.49;53.08
29383;BME280;16365;51.598;7.668;2022-12-07T02:26:08;100913.56;;;11.48;53.45
29383;BME280;16365;51.598;7.668;2022-12-07T02:29:06;100915.53;;;11.47;53.10
29383;BME280;16365;51.598;7.668;2022-12-07T02:31:37;100915.53;;;11.47;53.28
29383;BME280;16365;51.598;7.668;2022-12-07T02:34:16;100914.72;;;11.47;53.11
29383;BME280;16365;51.598;7.668;2022-12-07T02:36:53;100921.09;;;11.47;53.32
29383;BME280;16365;51.598;7.668;2022-12-07T02:39:40;100921.09;;;11.47;53.57
29383;BME280;16365;51.598;7.668;2022-12-07T02:42:20;100921.91;;;11.48;52.94
29383;BME280;16365;51.598;7.668;2022-12-07T02:44:50;100923.53;;;11.49;52.93
29383;BME280;16365;51.598;7.668;2022-12-07T02:47:19;100917.16;;;11.48;53.16
29383;BME280;16365;51.598;7.668;2022-12-07T02:49:47;100925.50;;;11.48;53.13
29383;BME280;16365;51.598;7.668;2022-12-07T02:52:15;100922.72;;;11.48;52.65
29383;BME280;16365;51.598;7.668;2022-12-07T02:54:42;100923.06;;;11.47;52.58
29383;BME280;16365;51.598;7.668;2022-12-07T02:57:19;100916.19;;;11.44;52.79
29383;BME280;16365;51.598;7.668;2022-12-07T03:00:06;100920.75;;;11.40;53.20
29383;BME280;16365;51.598;7.668;2022-12-07T03:03:00;100909.53;;;11.37;52.82
29383;BME280;16365;51.598;7.668;2022-12-07T03:05:41;100915.88;;;11.37;52.81
29383;BME280;16365;51.598;7.668;2022-12-07T03:08:13;100914.22;;;11.36;52.94
29383;BME280;16365;51.598;7.668;2022-12-07T03:11:00;100910.50;;;11.32;53.10
29383;BME280;16365;51.598;7.668;2022-12-07T03:14:13;100910.81;;;11.30;53.21
29383;BME280;16365;51.598;7.668;2022-12-07T03:17:00;100915.06;;;11.28;52.76
29383;BME280;16365;51.598;7.668;2022-12-07T03:19:31;100914.25;;;11.27;52.87
29383;BME280;16365;51.598;7.668;2022-12-07T03:22:05;100916.06;;;11.23;52.19
29383;BME280;16365;51.598;7.668;2022-12-07T03:24:39;100901.19;;;11.19;52.31
29383;BME280;16365;51.598;7.668;2022-12-07T03:27:13;100903.31;;;11.14;52.51
29383;BME280;16365;51.598;7.668;2022-12-07T03:29:50;100912.97;;;11.07;52.46
29383;BME280;16365;51.598;7.668;2022-12-07T03:32:29;100923.88;;;11.04;52.56
29383;BME280;16365;51.598;7.668;2022-12-07T03:35:08;100911.34;;;10.98;52.66
29383;BME280;16365;51.598;7.668;2022-12-07T03:40:16;100903.31;;;10.88;52.83
29383;BME280;16365;51.598;7.668;2022-12-07T03:42:44;100903.47;;;10.82;52.48
29383;BME280;16365;51.598;7.668;2022-12-07T03:45:12;100909.50;;;10.76;52.55
29383;BME280;16365;51.598;7.668;2022-12-07T03:48:01;100901.16;;;10.67;52.79
29383;BME280;16365;51.598;7.668;2022-12-07T03:53:08;100902.81;;;10.60;52.62
29383;BME280;16365;51.598;7.668;2022-12-07T03:55:41;100902.97;;;10.54;52.55
29383;BME280;16365;51.598;7.668;2022-12-07T03:58:11;100898.38;;;10.50;52.73
29383;BME280;16365;51.598;7.668;2022-12-07T04:00:38;100896.25;;;10.47;52.68
29383;BME280;16365;51.598;7.668;2022-12-07T04:03:06;100905.53;;;10.42;52.82
29383;BME280;16365;51.598;7.668;2022-12-07T04:05:32;100901.47;;;10.40;53.09
29383;BME280;16365;51.598;7.668;2022-12-07T04:07:59;100908.44;;;10.37;52.73
29383;BME280;16365;51.598;7.668;2022-12-07T04:10:26;100908.78;;;10.36;53.26
29383;BME280;16365;51.598;7.668;2022-12-07T04:12:52;100904.69;;;10.33;53.46
29383;BME280;16365;51.598;7.668;2022-12-07T04:15:18;100899.47;;;10.32;53.26
29383;BME280;16365;51.598;7.668;2022-12-07T04:17:45;100898.97;;;10.29;53.05
29383;BME280;16365;51.598;7.668;2022-12-07T04:20:12;100896.50;;;10.28;53.40
29383;BME280;16365;51.598;7.668;2022-12-07T04:22:38;100895.22;;;10.25;52.72
29383;BME280;16365;51.598;7.668;2022-12-07T04:25:05;100903.00;;;10.23;53.12
29383;BME280;16365;51.598;7.668;2022-12-07T04:27:32;100893.38;;;10.21;52.76
29383;BME280;16365;51.598;7.668;2022-12-07T04:29:58;100884.88;;;10.17;52.65
29383;BME280;16365;51.598;7.668;2022-12-07T04:32:25;100895.78;;;10.14;52.66
29383;BME280;16365;51.598;7.668;2022-12-07T04:34:51;100894.78;;;10.10;53.29
29383;BME280;16365;51.598;7.668;2022-12-07T04:37:22;100898.50;;;10.05;53.03
29383;BME280;16365;51.598;7.668;2022-12-07T04:39:49;100896.41;;;10.02;53.00
29383;BME280;16365;51.598;7.668;2022-12-07T04:42:15;100894.25;;;9.99;53.14
29383;BME280;16365;51.598;7.668;2022-12-07T04:44:42;100890.19;;;9.96;53.02
29383;BME280;16365;51.598;7.668;2022-12-07T04:47:08;100900.44;;;9.96;53.11
29383;BME280;16365;51.598;7.668;2022-12-07T04:49:35;100899.63;;;9.95;53.32
29383;BME280;16365;51.598;7.668;2022-12-07T04:52:01;100900.44;;;9.96;53.88
29383;BME280;16365;51.598;7.668;2022-12-07T04:54:28;100902.91;;;9.97;54.23
29383;BME280;16365;51.598;7.668;2022-12-07T04:56:54;100896.69;;;10.00;53.61
29383;BME280;16365;51.598;7.668;2022-12-07T04:59:20;100900.81;;;10.03;54.17
29383;BME280;16365;51.598;7.668;2022-12-07T05:01:47;100898.22;;;10.07;54.11
29383;BME280;16365;51.598;7.668;2022-12-07T05:04:14;100893.16;;;10.09;53.72
29383;BME280;16365;51.598;7.668;2022-12-07T05:06:42;100898.88;;;10.12;54.01
29383;BME280;16365;51.598;7.668;2022-12-07T05:09:08;100890.25;;;10.14;53.84
29383;BME280;16365;51.598;7.668;2022-12-07T05:11:35;100899.88;;;10.16;53.73
29383;BME280;16365;51.598;7.668;2022-12-07T05:16:37;100899.06;;;10.16;53.63
29383;BME280;16365;51.598;7.668;2022-12-07T05:19:05;100902.66;;;10.16;53.41
29383;BME280;16365;51.598;7.668;2022-12-07T05:21:31;100904.59;;;10.16;53.50
29383;BME280;16365;51.598;7.668;2022-12-07T05:23:58;100903.75;;;10.15;52.98
29383;BME280;16365;51.598;7.668;2022-12-07T05:26:24;100898.22;;;10.15;53.53
29383;BME280;16365;51.598;7.668;2022-12-07T05:28:52;100893.81;;;10.14;53.25
29383;BME280;16365;51.598;7.668;2022-12-07T05:31:19;100902.47;;;10.13;53.43
29383;BME280;16365;51.598;7.668;2022-12-07T05:33:46;100896.59;;;10.14;53.43
29383;BME280;16365;51.598;7.668;2022-12-07T05:36:12;100891.38;;;10.13;53.73
29383;BME280;16365;51.598;7.668;2022-12-07T05:38:39;100883.06;;;10.13;53.55
29383;BME280;16365;51.598;7.668;2022-12-07T05:41:07;100883.41;;;10.11;53.10
29383;BME280;16365;51.598;7.668;2022-12-07T05:43:55;100894.63;;;10.15;53.36
29383;BME280;16365;51.598;7.668;2022-12-07T05:46:21;100897.41;;;10.15;53.56
29383;BME280;16365;51.598;7.668;2022-12-07T05:48:48;100886.31;;;10.15;53.49
29383;BME280;16365;51.598;7.668;2022-12-07T05:51:15;100889.91;;;10.15;53.48
29383;BME280;16365;51.598;7.668;2022-12-07T05:53:41;100892.38;;;10.17;53.77
29383;BME280;16365;51.598;7.668;2022-12-07T05:56:08;100890.44;;;10.17;53.56
29383;BME280;16365;51.598;7.668;2022-12-07T05:58:34;100894.81;;;10.18;53.50
29383;BME280;16365;51.598;7.668;2022-12-07T06:01:19;100883.09;;;10.21;53.33
29383;BME280;16365;51.598;7.668;2022-12-07T06:03:46;100882.78;;;10.23;53.49
29383;BME280;16365;51.598;7.668;2022-12-07T06:06:12;100883.28;;;10.25;53.88
29383;BME280;16365;51.598;7.668;2022-12-07T06:08:39;100884.13;;;10.25;53.64
29383;BME280;16365;51.598;7.668;2022-12-07T06:11:05;100884.63;;;10.27;53.39
29383;BME280;16365;51.598;7.668;2022-12-07T06:13:50;100881.03;;;10.27;53.12
29383;BME280;16365;51.598;7.668;2022-12-07T06:16:17;100882.31;;;10.29;53.33
29383;BME280;16365;51.598;7.668;2022-12-07T06:18:43;100886.25;;;10.28;53.12
29383;BME280;16365;51.598;7.668;2022-12-07T06:21:10;100889.53;;;10.31;52.97
29383;BME280;16365;51.598;7.668;2022-12-07T06:23:36;100893.41;;;10.29;53.23
29383;BME280;16365;51.598;7.668;2022-12-07T06:26:05;100881.03;;;10.27;53.13
29383;BME280;16365;51.598;7.668;2022-12-07T06:28:31;100887.72;;;10.26;52.98
29383;BME280;16365;51.598;7.668;2022-12-07T06:30:58;100895.22;;;10.25;53.11
29383;BME280;16365;51.598;7.668;2022-12-07T06:33:25;100891.09;;;10.23;53.33
29383;BME280;16365;51.598;7.668;2022-12-07T06:35:52;100901.88;;;10.24;53.24
29383;BME280;16365;51.598;7.668;2022-12-07T06:38:20;100902.69;;;10.25;53.41
29383;BME280;16365;51.598;7.668;2022-12-07T06:40:47;100905.47;;;10.25;53.22
29383;BME280;16365;51.598;7.668;2022-12-07T06:43:14;100905.47;;;10.25;53.41
29383;BME280;16365;51.598;7.668;2022-12-07T06:45:41;100903.84;;;10.24;53.11
29383;BME280;16365;51.598;7.668;2022-12-07T06:48:07;100908.22;;;10.25;53.10
29383;BME280;16365;51.598;7.668;2022-12-07T06:50:35;100906.59;;;10.24;53.38
29383;BME280;16365;51.598;7.668;2022-12-07T06:53:01;100916.84;;;10.23;52.93
29383;BME280;16365;51.598;7.668;2022-12-07T06:55:28;100917.69;;;10.24;52.95
29383;BME280;16365;51.598;7.668;2022-12-07T06:57:54;100912.16;;;10.24;53.35
29383;BME280;16365;51.598;7.668;2022-12-07T07:00:21;100913.78;;;10.25;53.51
29383;BME280;16365;51.598;7.668;2022-12-07T07:02:47;100911.00;;;10.25;52.97
29383;BME280;16365;51.598;7.668;2022-12-07T07:05:14;100914.63;;;10.25;53.05
29383;BME280;16365;51.598;7.668;2022-12-07T07:07:42;100907.94;;;10.26;53.24
29383;BME280;16365;51.598;7.668;2022-12-07T07:10:29;100899.63;;;10.26;53.05
29383;BME280;16365;51.598;7.668;2022-12-07T07:12:56;100908.75;;;10.27;53.04
29383;BME280;16365;51.598;7.668;2022-12-07T07:15:23;100906.78;;;10.27;52.90
29383;BME280;16365;51.598;7.668;2022-12-07T07:17:49;100899.63;;;10.26;53.28
29383;BME280;16365;51.598;7.668;2022-12-07T07:20:16;100893.25;;;10.26;52.67
29383;BME280;16365;51.598;7.668;2022-12-07T07:22:42;100901.88;;;10.24;52.79
29383;BME280;16365;51.598;7.668;2022-12-07T07:25:09;100907.41;;;10.24;52.77
29383;BME280;16365;51.598;7.668;2022-12-07T07:27:36;100910.47;;;10.23;53.23
29383;BME280;16365;51.598;7.668;2022-12-07T07:30:03;100910.81;;;10.21;53.11
29383;BME280;16365;51.598;7.668;2022-12-07T07:32:30;100904.47;;;10.21;52.83
29383;BME280;16365;51.598;7.668;2022-12-07T07:34:57;100909.50;;;10.19;53.20
29383;BME280;16365;51.598;7.668;2022-12-07T07:37:23;100915.34;;;10.17;52.73
29383;BME280;16365;51.598;7.668;2022-12-07T07:39:52;100914.84;;;10.15;53.19
29383;BME280;16365;51.598;7.668;2022-12-07T07:42:18;100920.22;;;10.12;52.94
29383;BME280;16365;51.598;7.668;2022-12-07T07:44:45;100924.97;;;10.11;52.98
29383;BME280;16365;51.598;7.668;2022-12-07T07:47:11;100918.59;;;10.11;52.85
29383;BME280;16365;51.598;7.668;2022-12-07T07:49:38;100920.53;;;10.10;53.41
29383;BME280;16365;51.598;7.668;2022-12-07T07:52:12;100929.34;;;10.12;53.16
29383;BME280;16365;51.598;7.668;2022-12-07T07:54:39;100925.13;;;10.15;53.24
29383;BME280;16365;51.598;7.668;2022-12-07T07:57:05;100920.38;;;10.15;53.63
29383;BME280;16365;51.598;7.668;2022-12-07T07:59:32;100925.63;;;10.17;53.38
29383;BME280;16365;51.598;7.668;2022-12-07T08:01:58;100924.97;;;10.20;53.17
29383;BME280;16365;51.598;7.668;2022-12-07T08:04:25;100924.34;;;10.23;53.18
29383;BME280;16365;51.598;7.668;2022-12-07T08:06:52;100926.00;;;10.24;52.96
29383;BME280;16365;51.598;7.668;2022-12-07T08:09:18;100927.94;;;10.23;52.85
29383;BME280;16365;51.598;7.668;2022-12-07T08:11:45;100925.16;;;10.23;53.19
29383;BME280;16365;51.598;7.668;2022-12-07T08:14:12;100931.84;;;10.22;52.55
29383;BME280;16365;51.598;7.668;2022-12-07T08:16:38;100934.94;;;10.21;52.69
29383;BME280;16365;51.598;7.668;2022-12-07T08:19:05;100931.97;;;10.17;52.27
29383;BME280;16365;51.598;7.668;2022-12-07T08:21:31;100926.25;;;10.14;52.39
29383;BME280;16365;51.598;7.668;2022-12-07T08:23:58;100927.22;;;10.09;52.81
29383;BME280;16365;51.598;7.668;2022-12-07T08:26:24;100934.22;;;10.07;52.94
29383;BME280;16365;51.598;7.668;2022-12-07T08:28:52;100936.81;;;10.03;53.05
29383;BME280;16365;51.598;7.668;2022-12-07T08:31:19;100933.22;;;10.02;52.79
29383;BME280;16365;51.598;7.668;2022-12-07T08:33:47;100934.66;;;10.00;52.68
29383;BME280;16365;51.598;7.668;2022-12-07T08:36:13;100935.19;;;10.02;53.05
29383;BME280;16365;51.598;7.668;2022-12-07T08:38:41;100936.00;;;10.02;53.37
29383;BME280;16365;51.598;7.668;2022-12-07T08:41:21;100932.56;;;10.05;53.70
29383;BME280;16365;51.598;7.668;2022-12-07T08:43:47;100935.53;;;10.09;53.75
29383;BME280;16365;51.598;7.668;2022-12-07T08:46:24;100936.34;;;10.10;53.51
29383;BME280;16365;51.598;7.668;2022-12-07T08:49:22;100933.75;;;10.13;53.29
29383;BME280;16365;51.598;7.668;2022-12-07T08:51:50;100931.97;;;10.17;52.74
29383;BME280;16365;51.598;7.668;2022-12-07T08:54:18;100938.34;;;10.18;52.80
29383;BME280;16365;51.598;7.668;2022-12-07T08:56:47;100926.94;;;10.19;52.70
29383;BME280;16365;51.598;7.668;2022-12-07T08:59:22;100924.50;;;10.18;53.12
29383;BME280;16365;51.598;7.668;2022-12-07T09:01:49;100923.34;;;10.19;52.77
29383;BME280;16365;51.598;7.668;2022-12-07T09:04:15;100921.38;;;10.19;52.80
29383;BME280;16365;51.598;7.668;2022-12-07T09:06:42;100924.97;;;10.20;53.06
29383;BME280;16365;51.598;7.668;2022-12-07T09:09:09;100930.22;;;10.21;53.30
29383;BME280;16365;51.598;7.668;2022-12-07T09:11:36;100932.34;;;10.24;52.74
29383;BME280;16365;51.598;7.668;2022-12-07T09:14:03;100923.75;;;10.26;53.37
29383;BME280;16365;51.598;7.668;2022-12-07T09:16:29;100927.00;;;10.28;52.81
29383;BME280;16365;51.598;7.668;2022-12-07T09:18:56;100931.09;;;10.31;53.48
29383;BME280;16365;51.598;7.668;2022-12-07T09:21:22;100938.75;;;10.34;53.44
29383;BME280;16365;51.598;7.668;2022-12-07T09:23:49;100936.66;;;10.39;53.75
29383;BME280;16365;51.598;7.668;2022-12-07T09:26:15;100938.44;;;10.44;53.85
29383;BME280;16365;51.598;7.668;2022-12-07T09:28:42;100938.00;;;10.50;53.63
29383;BME280;16365;51.598;7.668;2022-12-07T09:31:08;100938.66;;;10.56;53.65
29383;BME280;16365;51.598;7.668;2022-12-07T09:33:59;100931.34;;;10.60;52.88
29383;BME280;16365;51.598;7.668;2022-12-07T09:36:27;100932.81;;;10.66;53.20
29383;BME280;16365;51.598;7.668;2022-12-07T09:38:54;100931.84;;;10.71;52.99
29383;BME280;16365;51.598;7.668;2022-12-07T09:41:24;100930.41;;;10.73;52.87
29383;BME280;16365;51.598;7.668;2022-12-07T09:43:52;100934.13;;;10.77;52.85
29383;BME280;16365;51.598;7.668;2022-12-07T09:46:22;100934.31;;;10.81;52.92
29383;BME280;16365;51.598;7.668;2022-12-07T09:48:49;100933.16;;;10.82;52.79
29383;BME280;16365;51.598;7.668;2022-12-07T09:51:19;100933.97;;;10.82;52.58
29383;BME280;16365;51.598;7.668;2022-12-07T09:53:51;100928.59;;;10.86;52.84
29383;BME280;16365;51.598;7.668;2022-12-07T09:56:19;100925.50;;;10.88;53.10
29383;BME280;16365;51.598;7.668;2022-12-07T09:58:46;100933.19;;;10.91;52.90
29383;BME280;16365;51.598;7.668;2022-12-07T10:01:14;100928.63;;;10.95;53.18
29383;BME280;16365;51.598;7.668;2022-12-07T10:06:37;100923.22;;;11.07;53.14
29383;BME280;16365;51.598;7.668;2022-12-07T10:09:09;100921.75;;;11.10;52.91
29383;BME280;16365;51.598;7.668;2022-12-07T10:11:59;100914.09;;;11.15;52.94
29383;BME280;16365;51.598;7.668;2022-12-07T10:14:28;100910.16;;;11.25;52.94
29383;BME280;16365;51.598;7.668;2022-12-07T10:17:51;100910.16;;;11.33;52.30
29383;BME280;16365;51.598;7.668;2022-12-07T10:20:25;100910.97;;;11.43;53.00
29383;BME280;16365;51.598;7.668;2022-12-07T10:23:02;100911.78;;;11.52;52.58
29383;BME280;16365;51.598;7.668;2022-12-07T10:25:33;100907.34;;;11.59;52.79
29383;BME280;16365;51.598;7.668;2022-12-07T10:28:12;100907.84;;;11.62;52.04
29383;BME280;16365;51.598;7.668;2022-12-07T10:30:54;100913.69;;;11.69;52.42
29383;BME280;16365;51.598;7.668;2022-12-07T10:36:15;100910.91;;;11.77;51.60
29383;BME280;16365;51.598;7.668;2022-12-07T10:38:47;100904.69;;;11.80;51.85
29383;BME280;16365;51.598;7.668;2022-12-07T10:41:14;100903.03;;;11.79;51.78
29383;BME280;16365;51.598;7.668;2022-12-07T10:43:48;100903.22;;;11.74;50.85
29383;BME280;16365;51.598;7.668;2022-12-07T10:49:41;100896.56;;;11.67;51.14
29383;BME280;16365;51.598;7.668;2022-12-07T10:52:20;100893.44;;;11.68;51.51
29383;BME280;16365;51.598;7.668;2022-12-07T10:55:16;100886.41;;;11.71;51.62
29383;BME280;16365;51.598;7.668;2022-12-07T11:03:53;100873.78;;;11.91;51.96
29383;BME280;16365;51.598;7.668;2022-12-07T11:06:36;100874.25;;;11.93;51.22
29383;BME280;16365;51.598;7.668;2022-12-07T11:09:33;100870.03;;;11.95;50.98
29383;BME280;16365;51.598;7.668;2022-12-07T11:15:13;100866.75;;;11.93;49.98
29383;BME280;16365;51.598;7.668;2022-12-07T11:21:03;100867.09;;;11.92;50.71
29383;BME280;16365;51.598;7.668;2022-12-07T11:32:13;100865.94;;;11.93;50.52
29383;BME280;16365;51.598;7.668;2022-12-07T11:37:23;100860.34;;;12.01;51.40
29383;BME280;16365;51.598;7.668;2022-12-07T11:39:54;100855.75;;;12.05;51.13
29383;BME280;16365;51.598;7.668;2022-12-07T11:42:28;100860.31;;;12.10;50.79
29383;BME280;16365;51.598;7.668;2022-12-07T11:45:04;100848.19;;;12.15;51.56
29383;BME280;16365;51.598;7.668;2022-12-07T11:52:49;100843.84;;;12.26;50.81
29383;BME280;16365;51.598;7.668;2022-12-07T12:04:10;100834.91;;;12.20;50.39
29383;BME280;16365;51.598;7.668;2022-12-07T12:06:42;100834.25;;;12.23;50.22
29383;BME280;16365;51.598;7.668;2022-12-07T12:09:16;100828.69;;;12.23;50.54
29383;BME280;16365;51.598;7.668;2022-12-07T12:15:37;100829.97;;;12.26;50.09
29383;BME280;16365;51.598;7.668;2022-12-07T12:18:35;100835.16;;;12.27;49.82
29383;BME280;16365;51.598;7.668;2022-12-07T12:21:15;100826.03;;;12.27;49.84
29383;BME280;16365;51.598;7.668;2022-12-07T12:23:54;100831.25;;;12.28;49.96
29383;BME280;16365;51.598;7.668;2022-12-07T12:26:28;100818.19;;;12.29;50.18
29383;BME280;16365;51.598;7.668;2022-12-07T12:29:00;100815.06;;;12.30;50.81
29383;BME280;16365;51.598;7.668;2022-12-07T12:33:59;100806.84;;;12.34;50.07
29383;BME280;16365;51.598;7.668;2022-12-07T12:39:13;100809.28;;;12.35;49.70
29383;BME280;16365;51.598;7.668;2022-12-07T12:51:44;100788.88;;;12.31;50.30
29383;BME280;16365;51.598;7.668;2022-12-07T12:54:24;100789.22;;;12.30;49.18
29383;BME280;16365;51.598;7.668;2022-12-07T12:59:32;100792.16;;;12.33;49.68
29383;BME280;16365;51.598;7.668;2022-12-07T13:15:51;100786.50;;;12.42;49.12
29383;BME280;16365;51.598;7.668;2022-12-07T13:18:24;100772.13;;;12.40;49.22
29383;BME280;16365;51.598;7.668;2022-12-07T13:26:38;100781.78;;;12.43;49.37
29383;BME280;16365;51.598;7.668;2022-12-07T13:29:20;100778.16;;;12.42;48.62
29383;BME280;16365;51.598;7.668;2022-12-07T13:31:52;100770.97;;;12.41;48.43
29383;BME280;16365;51.598;7.668;2022-12-07T13:34:30;100764.94;;;12.39;48.77
29383;BME280;16365;51.598;7.668;2022-12-07T13:37:00;100761.81;;;12.41;48.79
29383;BME280;16365;51.598;7.668;2022-12-07T13:39:33;100749.44;;;12.38;49.27
29383;BME280;16365;51.598;7.668;2022-12-07T13:42:18;100760.06;;;12.36;48.15
29383;BME280;16365;51.598;7.668;2022-12-07T13:44:45;100757.63;;;12.34;49.64
29383;BME280;16365;51.598;7.668;2022-12-07T13:47:17;100752.41;;;12.33;48.71
29383;BME280;16365;51.598;7.668;2022-12-07T13:49:49;100744.88;;;12.33;48.92
29383;BME280;16365;51.598;7.668;2022-12-07T13:52:27;100744.75;;;12.30;48.25
29383;BME280;16365;51.598;7.668;2022-12-07T13:55:01;100743.94;;;12.29;48.70
29383;BME280;16365;51.598;7.668;2022-12-07T13:57:35;100746.72;;;12.29;48.74
29383;BME280;16365;51.598;7.668;2022-12-07T14:00:13;100746.56;;;12.26;48.38
29383;BME280;16365;51.598;7.668;2022-12-07T14:02:56;100751.16;;;12.22;48.06
29383;BME280;16365;51.598;7.668;2022-12-07T14:05:25;100742.81;;;12.22;48.69
29383;BME280;16365;51.598;7.668;2022-12-07T14:07:57;100745.16;;;12.20;48.38
29383;BME280;16365;51.598;7.668;2022-12-07T14:12:50;100735.03;;;12.15;49.37
29383;BME280;16365;51.598;7.668;2022-12-07T14:15:25;100736.88;;;12.11;48.35
29383;BME280;16365;51.598;7.668;2022-12-07T14:17:54;100736.50;;;12.13;48.74
29383;BME280;16365;51.598;7.668;2022-12-07T14:20:34;100728.53;;;12.11;48.60
29383;BME280;16365;51.598;7.668;2022-12-07T14:23:04;100720.19;;;12.11;48.57
29383;BME280;16365;51.598;7.668;2022-12-07T14:25:48;100721.19;;;12.06;48.50
29383;BME280;16365;51.598;7.668;2022-12-07T14:28:32;100718.63;;;12.01;47.98
29383;BME280;16365;51.598;7.668;2022-12-07T14:31:00;100718.97;;;12.00;48.76
29383;BME280;16365;51.598;7.668;2022-12-07T14:33:27;100721.59;;;11.96;49.23
29383;BME280;16365;51.598;7.668;2022-12-07T14:35:54;100715.09;;;11.92;48.67
29383;BME280;16365;51.598;7.668;2022-12-07T14:38:22;100729.63;;;11.89;48.66
29383;BME280;16365;51.598;7.668;2022-12-07T14:40:48;100722.34;;;11.85;49.05
29383;BME280;16365;51.598;7.668;2022-12-07T14:43:16;100719.38;;;11.81;49.09
29383;BME280;16365;51.598;7.668;2022-12-07T14:45:43;100712.88;;;11.77;48.66
29383;BME280;16365;51.598;7.668;2022-12-07T14:48:12;100719.09;;;11.74;48.96
29383;BME280;16365;51.598;7.668;2022-12-07T14:50:59;100720.09;;;11.69;48.95
29383;BME280;16365;51.598;7.668;2022-12-07T14:53:48;100710.31;;;11.63;48.49
29383;BME280;16365;51.598;7.668;2022-12-07T14:56:23;100703.00;;;11.58;49.06